sensor_id;sensor_type;location;lat;lon;timestamp;P1;durP1;ratioP1;P2;durP2;ratioP2
57323;SDS011;43160;51.008;18.248;2023-04-25T00:01:48;15.80;;;7.60;;
57323;SDS011;43160;51.008;18.248;2023-04-25T00:11:36;17.70;;;8.60;;
57323;SDS011;43160;51.008;18.248;2023-04-25T00:21:24;15.50;;;6.40;;
57323;SDS011;43160;51.008;18.248;2023-04-25T00:31:12;13.50;;;5.30;;
57323;SDS011;43160;51.008;18.248;2023-04-25T00:40:56;9.30;;;3.40;;
57323;SDS011;43160;51.008;18.248;2023-04-25T00:50:41;13.10;;;4.10;;
57323;SDS011;43160;51.008;18.248;2023-04-25T01:00:27;10.60;;;4.30;;
57323;SDS011;43160;51.008;18.248;2023-04-25T01:10:10;13.70;;;4.30;;
57323;SDS011;43160;51.008;18.248;2023-04-25T01:19:54;9.40;;;3.90;;
57323;SDS011;43160;51.008;18.248;2023-04-25T01:29:38;8.10;;;3.60;;
57323;SDS011;43160;51.008;18.248;2023-04-25T01:39:22;9.80;;;3.90;;
57323;SDS011;43160;51.008;18.248;2023-04-25T01:49:05;5.90;;;2.30;;
57323;SDS011;43160;51.008;18.248;2023-04-25T01:58:50;9.00;;;3.30;;
57323;SDS011;43160;51.008;18.248;2023-04-25T02:08:34;8.20;;;2.90;;
57323;SDS011;43160;51.008;18.248;2023-04-25T02:18:17;7.00;;;2.70;;
57323;SDS011;43160;51.008;18.248;2023-04-25T02:28:02;9.60;;;3.00;;
57323;SDS011;43160;51.008;18.248;2023-04-25T02:37:46;9.20;;;3.40;;
57323;SDS011;43160;51.008;18.248;2023-04-25T02:47:29;9.70;;;3.00;;
57323;SDS011;43160;51.008;18.248;2023-04-25T02:57:12;12.50;;;3.20;;
57323;SDS011;43160;51.008;18.248;2023-04-25T03:06:55;10.50;;;3.60;;
57323;SDS011;43160;51.008;18.248;2023-04-25T03:16:38;9.30;;;3.00;;
57323;SDS011;43160;51.008;18.248;2023-04-25T03:26:23;15.10;;;3.40;;
57323;SDS011;43160;51.008;18.248;2023-04-25T03:36:07;12.20;;;4.40;;
57323;SDS011;43160;51.008;18.248;2023-04-25T03:45:52;11.30;;;3.90;;
57323;SDS011;43160;51.008;18.248;2023-04-25T03:55:36;10.10;;;3.30;;
57323;SDS011;43160;51.008;18.248;2023-04-25T04:05:19;9.70;;;3.20;;
57323;SDS011;43160;51.008;18.248;2023-04-25T04:15:04;12.10;;;4.60;;
57323;SDS011;43160;51.008;18.248;2023-04-25T04:24:48;13.60;;;3.00;;
57323;SDS011;43160;51.008;18.248;2023-04-25T04:34:34;12.40;;;2.50;;
57323;SDS011;43160;51.008;18.248;2023-04-25T04:44:17;11.20;;;3.80;;
57323;SDS011;43160;51.008;18.248;2023-04-25T04:54:02;12.10;;;4.50;;
57323;SDS011;43160;51.008;18.248;2023-04-25T05:03:47;11.60;;;3.80;;
57323;SDS011;43160;51.008;18.248;2023-04-25T05:13:30;12.20;;;4.70;;
57323;SDS011;43160;51.008;18.248;2023-04-25T05:23:13;10.10;;;3.50;;
57323;SDS011;43160;51.008;18.248;2023-04-25T05:32:56;13.80;;;3.10;;
57323;SDS011;43160;51.008;18.248;2023-04-25T05:42:39;9.80;;;3.50;;
57323;SDS011;43160;51.008;18.248;2023-04-25T05:52:22;12.30;;;5.90;;
57323;SDS011;43160;51.008;18.248;2023-04-25T06:12:53;13.20;;;4.80;;
57323;SDS011;43160;51.008;18.248;2023-04-25T06:29:55;10.40;;;4.30;;
57323;SDS011;43160;51.008;18.248;2023-04-25T06:39:38;15.20;;;5.40;;
57323;SDS011;43160;51.008;18.248;2023-04-25T06:49:21;11.90;;;5.40;;
57323;SDS011;43160;51.008;18.248;2023-04-25T06:59:05;11.00;;;4.30;;
57323;SDS011;43160;51.008;18.248;2023-04-25T07:08:48;11.70;;;6.30;;
57323;SDS011;43160;51.008;18.248;2023-04-25T07:18:32;11.70;;;4.70;;
57323;SDS011;43160;51.008;18.248;2023-04-25T07:28:15;16.60;;;5.30;;
57323;SDS011;43160;51.008;18.248;2023-04-25T07:37:58;10.70;;;5.40;;
57323;SDS011;43160;51.008;18.248;2023-04-25T07:47:42;14.20;;;5.60;;
57323;SDS011;43160;51.008;18.248;2023-04-25T07:57:26;11.20;;;3.50;;
57323;SDS011;43160;51.008;18.248;2023-04-25T08:07:09;11.50;;;4.60;;
57323;SDS011;43160;51.008;18.248;2023-04-25T08:16:56;17.00;;;5.90;;
57323;SDS011;43160;51.008;18.248;2023-04-25T08:26:39;11.10;;;4.70;;
57323;SDS011;43160;51.008;18.248;2023-04-25T08:36:23;12.10;;;3.50;;
57323;SDS011;43160;51.008;18.248;2023-04-25T08:46:08;13.90;;;3.70;;
57323;SDS011;43160;51.008;18.248;2023-04-25T08:55:55;8.80;;;2.90;;
57323;SDS011;43160;51.008;18.248;2023-04-25T09:05:41;8.30;;;2.50;;
57323;SDS011;43160;51.008;18.248;2023-04-25T09:15:32;9.80;;;4.10;;
57323;SDS011;43160;51.008;18.248;2023-04-25T09:25:26;14.10;;;3.40;;
57323;SDS011;43160;51.008;18.248;2023-04-25T09:35:25;10.60;;;4.10;;
57323;SDS011;43160;51.008;18.248;2023-04-25T09:45:09;8.90;;;3.40;;
57323;SDS011;43160;51.008;18.248;2023-04-25T09:54:56;10.50;;;4.00;;
57323;SDS011;43160;51.008;18.248;2023-04-25T10:04:44;7.60;;;2.30;;
57323;SDS011;43160;51.008;18.248;2023-04-25T10:14:31;10.60;;;4.40;;
57323;SDS011;43160;51.008;18.248;2023-04-25T10:22:13;12.00;;;5.40;;
57323;SDS011;43160;51.008;18.248;2023-04-25T10:32:00;12.00;;;5.00;;
57323;SDS011;43160;51.008;18.248;2023-04-25T10:41:56;13.00;;;4.60;;
57323;SDS011;43160;51.008;18.248;2023-04-25T11:02:25;12.90;;;4.70;;
57323;SDS011;43160;51.008;18.248;2023-04-25T11:12:13;13.50;;;5.00;;
57323;SDS011;43160;51.008;18.248;2023-04-25T11:21:58;9.60;;;3.90;;
57323;SDS011;43160;51.008;18.248;2023-04-25T11:31:48;13.00;;;4.50;;
57323;SDS011;43160;51.008;18.248;2023-04-25T11:41:37;12.10;;;5.50;;
57323;SDS011;43160;51.008;18.248;2023-04-25T11:51:21;12.00;;;4.60;;
57323;SDS011;43160;51.008;18.248;2023-04-25T12:01:35;12.50;;;4.60;;
57323;SDS011;43160;51.008;18.248;2023-04-25T12:11:32;13.10;;;5.80;;
57323;SDS011;43160;51.008;18.248;2023-04-25T12:21:33;14.60;;;6.40;;
57323;SDS011;43160;51.008;18.248;2023-04-25T12:31:49;10.60;;;4.40;;
57323;SDS011;43160;51.008;18.248;2023-04-25T12:41:34;13.30;;;4.70;;
57323;SDS011;43160;51.008;18.248;2023-04-25T12:58:35;8.00;;;3.50;;
57323;SDS011;43160;51.008;18.248;2023-04-25T13:08:19;9.20;;;3.40;;
57323;SDS011;43160;51.008;18.248;2023-04-25T13:18:04;4.50;;;1.70;;
57323;SDS011;43160;51.008;18.248;2023-04-25T13:27:52;8.50;;;2.40;;
57323;SDS011;43160;51.008;18.248;2023-04-25T13:37:36;11.50;;;3.20;;
57323;SDS011;43160;51.008;18.248;2023-04-25T13:47:22;6.00;;;1.70;;
57323;SDS011;43160;51.008;18.248;2023-04-25T13:57:06;8.20;;;2.80;;
57323;SDS011;43160;51.008;18.248;2023-04-25T14:06:51;7.60;;;2.80;;
57323;SDS011;43160;51.008;18.248;2023-04-25T14:16:37;8.20;;;2.90;;
57323;SDS011;43160;51.008;18.248;2023-04-25T14:26:23;9.00;;;3.10;;
57323;SDS011;43160;51.008;18.248;2023-04-25T14:36:09;9.10;;;2.80;;
57323;SDS011;43160;51.008;18.248;2023-04-25T14:45:53;9.00;;;3.20;;
57323;SDS011;43160;51.008;18.248;2023-04-25T14:55:37;7.60;;;2.40;;
57323;SDS011;43160;51.008;18.248;2023-04-25T15:05:23;8.90;;;3.00;;
57323;SDS011;43160;51.008;18.248;2023-04-25T15:15:08;8.70;;;3.10;;
57323;SDS011;43160;51.008;18.248;2023-04-25T15:25:04;9.40;;;4.00;;
57323;SDS011;43160;51.008;18.248;2023-04-25T15:34:51;11.60;;;3.40;;
57323;SDS011;43160;51.008;18.248;2023-04-25T15:44:35;16.10;;;4.10;;
57323;SDS011;43160;51.008;18.248;2023-04-25T15:54:18;9.20;;;3.20;;
57323;SDS011;43160;51.008;18.248;2023-04-25T16:04:02;12.90;;;3.00;;
57323;SDS011;43160;51.008;18.248;2023-04-25T16:13:46;8.60;;;3.10;;
57323;SDS011;43160;51.008;18.248;2023-04-25T16:23:30;9.80;;;3.50;;
57323;SDS011;43160;51.008;18.248;2023-04-25T16:33:14;8.20;;;2.80;;
57323;SDS011;43160;51.008;18.248;2023-04-25T16:42:57;8.70;;;2.80;;
57323;SDS011;43160;51.008;18.248;2023-04-25T16:52:43;8.60;;;3.30;;
57323;SDS011;43160;51.008;18.248;2023-04-25T17:02:28;13.80;;;4.50;;
57323;SDS011;43160;51.008;18.248;2023-04-25T17:12:17;8.50;;;3.50;;
57323;SDS011;43160;51.008;18.248;2023-04-25T17:22:03;15.50;;;5.20;;
57323;SDS011;43160;51.008;18.248;2023-04-25T17:31:48;11.40;;;3.80;;
57323;SDS011;43160;51.008;18.248;2023-04-25T17:41:39;10.30;;;3.90;;
57323;SDS011;43160;51.008;18.248;2023-04-25T17:51:23;12.30;;;4.70;;
57323;SDS011;43160;51.008;18.248;2023-04-25T18:01:08;12.60;;;5.80;;
57323;SDS011;43160;51.008;18.248;2023-04-25T18:10:51;15.30;;;4.80;;
57323;SDS011;43160;51.008;18.248;2023-04-25T18:20:44;11.90;;;4.70;;
57323;SDS011;43160;51.008;18.248;2023-04-25T18:30:29;17.70;;;6.30;;
57323;SDS011;43160;51.008;18.248;2023-04-25T18:40:12;11.90;;;5.20;;
57323;SDS011;43160;51.008;18.248;2023-04-25T18:49:59;11.00;;;5.10;;
57323;SDS011;43160;51.008;18.248;2023-04-25T18:59:43;13.60;;;5.90;;
57323;SDS011;43160;51.008;18.248;2023-04-25T19:09:28;13.10;;;5.70;;
57323;SDS011;43160;51.008;18.248;2023-04-25T19:19:12;13.80;;;6.50;;
57323;SDS011;43160;51.008;18.248;2023-04-25T19:29:08;15.30;;;5.30;;
57323;SDS011;43160;51.008;18.248;2023-04-25T19:38:55;15.10;;;6.20;;
57323;SDS011;43160;51.008;18.248;2023-04-25T19:48:44;14.60;;;5.10;;
57323;SDS011;43160;51.008;18.248;2023-04-25T19:58:29;20.60;;;6.00;;
57323;SDS011;43160;51.008;18.248;2023-04-25T20:08:17;14.00;;;5.50;;
57323;SDS011;43160;51.008;18.248;2023-04-25T20:18:03;15.40;;;5.10;;
57323;SDS011;43160;51.008;18.248;2023-04-25T20:27:46;22.40;;;6.80;;
57323;SDS011;43160;51.008;18.248;2023-04-25T20:37:33;18.00;;;5.50;;
57323;SDS011;43160;51.008;18.248;2023-04-25T20:47:19;28.50;;;6.50;;
57323;SDS011;43160;51.008;18.248;2023-04-25T20:57:03;16.10;;;4.40;;
57323;SDS011;43160;51.008;18.248;2023-04-25T21:06:48;14.40;;;4.10;;
57323;SDS011;43160;51.008;18.248;2023-04-25T21:16:33;10.60;;;4.30;;
57323;SDS011;43160;51.008;18.248;2023-04-25T21:26:22;13.80;;;6.00;;
57323;SDS011;43160;51.008;18.248;2023-04-25T21:36:05;18.20;;;5.20;;
57323;SDS011;43160;51.008;18.248;2023-04-25T21:45:49;12.40;;;4.30;;
57323;SDS011;43160;51.008;18.248;2023-04-25T21:55:34;22.70;;;5.50;;
57323;SDS011;43160;51.008;18.248;2023-04-25T22:05:18;18.10;;;5.40;;
57323;SDS011;43160;51.008;18.248;2023-04-25T22:15:09;29.40;;;6.30;;
57323;SDS011;43160;51.008;18.248;2023-04-25T22:25:05;16.60;;;6.60;;
57323;SDS011;43160;51.008;18.248;2023-04-25T22:34:51;20.10;;;5.90;;
57323;SDS011;43160;51.008;18.248;2023-04-25T22:44:35;14.30;;;6.20;;
57323;SDS011;43160;51.008;18.248;2023-04-25T22:54:22;23.10;;;5.30;;
57323;SDS011;43160;51.008;18.248;2023-04-25T23:04:06;16.50;;;5.70;;
57323;SDS011;43160;51.008;18.248;2023-04-25T23:13:50;17.70;;;6.50;;
57323;SDS011;43160;51.008;18.248;2023-04-25T23:23:34;19.90;;;6.80;;
57323;SDS011;43160;51.008;18.248;2023-04-25T23:26:10;26.50;;;10.90;;
57323;SDS011;43160;51.008;18.248;2023-04-25T23:36:00;14.10;;;5.40;;
57323;SDS011;43160;51.008;18.248;2023-04-25T23:45:44;17.70;;;6.20;;
57323;SDS011;43160;51.008;18.248;2023-04-25T23:55:28;15.20;;;5.00;;
